Time;durP1;ratioP1;P1;durP2;ratioP2;P2;SDS_P1;SDS_P2;PMS_P1;PMS_P2;Temp;Humidity;BMP_temperature;BMP_pressure;BME280_temperature;BME280_humidity;BME280_pressure;Samples;Min_cycle;Max_cycle;Signal;HPM_P1;HPM_P2
2022/01/20 00:04:19;;;;;;;1.38;0.82;;;;;;;2.88;100.00;101433.66;4996547;28;20053;-58
2022/01/20 00:27:04;;;;;;;2.20;0.95;;;;;;;2.79;100.00;101444.25;5023581;28;20398;-57
2022/01/20 00:39:18;;;;;;;0.60;0.50;;;;;;;2.54;100.00;101470.78;4995125;28;20499;-57
2022/01/20 00:42:22;;;;;;;11.55;1.13;;;;;;;2.52;100.00;101472.31;4995348;28;20435;-57
2022/01/20 00:45:26;;;;;;;2.78;1.10;;;;;;;2.61;100.00;101464.53;4995081;28;20053;-57
2022/01/20 00:48:29;;;;;;;1.10;0.73;;;;;;;2.61;100.00;101470.84;4995370;28;20065;-57
2022/01/20 00:51:32;;;;;;;0.52;0.52;;;;;;;2.61;100.00;101470.84;4995540;28;20057;-57
2022/01/20 00:54:36;;;;;;;1.33;1.33;;;;;;;2.59;100.00;101472.38;4995593;28;20395;-57
2022/01/20 00:57:40;;;;;;;1.17;0.88;;;;;;;2.59;100.00;101478.69;4995369;28;20057;-57
2022/01/20 01:00:43;;;;;;;3.42;1.15;;;;;;;2.56;100.00;101473.94;4994382;28;20065;-57
2022/01/20 01:03:46;;;;;;;14.18;1.10;;;;;;;2.57;100.00;101486.53;4994883;28;20073;-57
2022/01/20 01:10:17;;;;;;;11.00;1.70;;;;;;;2.51;100.00;101471.56;5014081;28;20052;-56
2022/01/20 01:13:23;;;;;;;1.05;1.05;;;;;;;2.47;100.00;101470.72;5014649;28;20069;-57
2022/01/20 01:16:39;;;;;;;1.05;0.73;;;;;;;2.51;100.00;101477.06;5014435;28;20069;-57
2022/01/20 01:20:18;;;;;;;0.95;0.68;;;;;;;2.49;100.00;101478.59;5013930;28;20066;-57
2022/01/20 01:23:12;;;;;;;0.60;0.60;;;;;;;2.48;100.00;101491.56;5014670;28;20076;-56
2022/01/20 01:26:17;;;;;;;0.60;0.50;;;;;;;2.43;100.00;101491.91;5018978;28;20044;-57
2022/01/20 01:29:46;;;;;;;3.70;1.75;;;;;;;2.42;100.00;101501.31;5033862;28;20494;-57
2022/01/20 01:35:58;;;;;;;0.73;0.68;;;;;;;2.41;100.00;101496.19;5015765;28;20430;-56
2022/01/20 01:39:02;;;;;;;3.03;1.42;;;;;;;2.42;100.00;101495.03;4994350;28;20388;-57
2022/01/20 01:42:08;;;;;;;0.70;0.70;;;;;;;2.41;100.00;101494.25;4994600;28;20049;-56
2022/01/20 01:45:18;;;;;;;1.10;0.38;;;;;;;2.42;100.00;101501.31;4993824;28;20049;-57
2022/01/20 01:48:21;;;;;;;1.85;1.67;;;;;;;2.40;100.00;101492.66;4994071;28;20053;-57
2022/01/20 01:51:25;;;;;;;2.97;1.55;;;;;;;2.36;100.00;101494.56;4994311;28;20069;-56
2022/01/20 01:54:30;;;;;;;6.20;2.08;;;;;;;2.38;100.00;101511.50;4994492;28;20118;-56
2022/01/20 01:57:34;;;;;;;2.95;1.83;;;;;;;2.25;100.00;101512.97;4994352;28;20049;-57
2022/01/20 02:00:37;;;;;;;0.93;0.88;;;;;;;2.30;100.00;101529.09;4994385;28;20165;-56
2022/01/20 02:03:57;;;;;;;3.17;1.65;;;;;;;2.29;100.00;101535.75;4993096;28;20061;-57
2022/01/20 02:07:42;;;;;;;0.95;0.68;;;;;;;2.24;100.00;101536.91;5030868;28;20056;-57
2022/01/20 02:20:58;;;;;;;4.35;1.13;;;;;;;2.17;100.00;101555.25;4992638;28;20424;-57
2022/01/20 02:24:01;;;;;;;7.03;1.38;;;;;;;2.24;100.00;101549.84;4993932;28;20057;-56
2022/01/20 02:27:05;;;;;;;30.00;2.15;;;;;;;2.17;100.00;101560.75;5019984;28;20068;-57
2022/01/20 02:30:08;;;;;;;0.70;0.70;;;;;;;2.20;100.00;101560.00;5013098;28;20052;-57
2022/01/20 02:33:16;;;;;;;1.23;1.10;;;;;;;2.18;100.00;101548.59;5012153;28;21007;-57
2022/01/20 02:36:20;;;;;;;1.02;1.02;;;;;;;2.12;100.00;101558.38;5000458;28;20053;-57
2022/01/20 02:45:49;;;;;;;;;;;;;;;2.07;100.00;101561.44;4993648;28;20135;-56
2022/01/20 02:48:52;;;;;;;1.45;1.35;;;;;;;2.01;100.00;101572.00;4993592;28;19918;-56
2022/01/20 02:51:56;;;;;;;1.83;1.50;;;;;;;1.96;100.00;101582.50;4993881;28;20069;-56
2022/01/20 02:55:00;;;;;;;3.88;1.63;;;;;;;1.93;100.00;101583.25;4993193;28;20049;-57
2022/01/20 02:58:03;;;;;;;2.65;1.13;;;;;;;1.99;100.00;101590.78;4993428;28;20057;-56
2022/01/20 03:01:08;;;;;;;1.55;1.45;;;;;;;2.06;100.00;101587.31;4992531;28;20514;-56
2022/01/20 03:04:11;;;;;;;1.60;1.50;;;;;;;2.16;100.00;101592.97;4993400;28;20575;-56
2022/01/20 03:07:15;;;;;;;28.38;2.58;;;;;;;2.17;100.00;101582.75;4993145;28;20415;-57
2022/01/20 03:10:19;;;;;;;2.70;1.33;;;;;;;2.21;100.00;101586.31;4997864;28;20057;-56
2022/01/20 03:13:23;;;;;;;0.57;0.57;;;;;;;2.18;100.00;101589.84;4997372;28;20073;-56
2022/01/20 03:16:26;;;;;;;16.00;2.15;;;;;;;2.08;100.00;101596.78;5006855;28;20064;-56
2022/01/20 03:19:30;;;;;;;0.20;0.20;;;;;;;2.00;100.00;101595.13;5012674;28;20045;-57
2022/01/20 03:22:34;;;;;;;3.60;0.95;;;;;;;2.03;100.00;101588.09;5012742;28;20494;-56
2022/01/20 03:25:37;;;;;;;1.70;0.82;;;;;;;2.04;100.00;101595.16;5012540;28;20121;-56
2022/01/20 03:28:41;;;;;;;1.08;0.68;;;;;;;2.00;100.00;101588.84;4993098;28;20054;-56
2022/01/20 03:31:44;;;;;;;1.08;1.05;;;;;;;2.05;100.00;101583.00;4992822;28;20073;-57
2022/01/20 03:34:47;;;;;;;18.42;1.88;;;;;;;2.02;100.00;101570.81;4993424;28;20053;-56
2022/01/20 03:37:50;;;;;;;2.67;1.20;;;;;;;2.14;100.00;101583.50;5012311;28;20045;-56
2022/01/20 03:40:54;;;;;;;0.77;0.73;;;;;;;2.17;100.00;101608.28;5012610;28;20068;-57
2022/01/20 03:43:58;;;;;;;1.52;1.25;;;;;;;2.16;100.00;101609.44;5012060;28;20399;-56
2022/01/20 03:47:03;;;;;;;17.55;2.03;;;;;;;2.18;100.00;101606.31;5012404;28;20053;-56
2022/01/20 03:50:10;;;;;;;1.17;1.10;;;;;;;2.22;100.00;101607.16;5012320;28;20049;-56
2022/01/20 03:53:14;;;;;;;2.20;2.03;;;;;;;2.36;100.00;101617.50;5016374;28;20049;-57
2022/01/20 03:56:18;;;;;;;0.50;0.50;;;;;;;2.48;100.00;101609.78;5014621;28;20049;-57
2022/01/20 03:59:21;;;;;;;0.75;0.75;;;;;;;2.57;100.00;101628.72;5015272;28;20458;-56
2022/01/20 04:02:25;;;;;;;6.53;1.00;;;;;;;2.67;100.00;101622.53;5015445;28;20056;-56
2022/01/20 04:05:29;;;;;;;4.47;1.65;;;;;;;2.81;100.00;101612.47;5015849;28;20057;-56
2022/01/20 04:08:37;;;;;;;3.03;2.03;;;;;;;2.87;100.00;101610.13;5015592;28;20061;-56
2022/01/20 04:11:41;;;;;;;3.90;1.85;;;;;;;2.99;100.00;101620.84;5015720;28;20053;-56
2022/01/20 04:14:48;;;;;;;2.60;1.45;;;;;;;3.06;100.00;101612.63;5014218;28;20477;-56
2022/01/20 04:17:55;;;;;;;6.65;3.30;;;;;;;3.10;100.00;101627.22;5014233;28;20418;-56
2022/01/20 04:20:59;;;;;;;8.25;0.98;;;;;;;3.13;100.00;101631.16;5015047;28;20060;-56
2022/01/20 04:24:04;;;;;;;29.38;3.28;;;;;;;3.13;100.00;101639.44;5015554;28;20076;-56
2022/01/20 04:27:07;;;;;;;10.80;2.15;;;;;;;3.18;100.00;101636.34;5019492;28;20068;-56
2022/01/20 04:30:10;;;;;;;22.10;2.10;;;;;;;3.20;100.00;101645.00;5034241;28;20057;-56
2022/01/20 04:33:14;;;;;;;4.18;2.03;;;;;;;3.26;100.00;101646.22;5033587;28;20057;-56
2022/01/20 04:36:18;;;;;;;12.02;2.35;;;;;;;3.37;100.00;101656.16;5009238;28;20502;-56
2022/01/20 04:39:25;;;;;;;4.78;1.48;;;;;;;3.46;100.00;101656.59;4995668;28;20053;-57
2022/01/20 04:42:31;;;;;;;9.02;3.03;;;;;;;3.44;100.00;101658.16;4995923;28;20053;-56
2022/01/20 04:45:42;;;;;;;6.55;3.50;;;;;;;3.48;100.00;101654.25;4995405;28;20050;-57
2022/01/20 04:58:34;;;;;;;5.93;1.92;;;;;;;3.51;100.00;101671.97;4995205;28;20065;-56
2022/01/20 05:01:43;;;;;;;4.22;1.50;;;;;;;3.44;100.00;101671.94;4995052;28;20057;-56
2022/01/20 05:04:47;;;;;;;7.55;2.47;;;;;;;3.50;100.00;101664.88;4994892;28;20061;-56
2022/01/20 05:07:50;;;;;;;2.05;1.42;;;;;;;3.63;100.00;101668.91;4994102;28;20061;-56
2022/01/20 05:10:54;;;;;;;4.93;1.23;;;;;;;3.77;100.00;101668.97;4995393;28;20045;-57
2022/01/20 05:13:57;;;;;;;3.28;1.83;;;;;;;3.78;100.00;101665.06;4994698;28;20053;-57
2022/01/20 05:17:01;;;;;;;3.05;1.75;;;;;;;3.78;100.00;101676.06;4994931;28;20061;-56
2022/01/20 05:20:05;;;;;;;1.75;1.13;;;;;;;3.80;100.00;101677.28;4994379;28;20443;-56
2022/01/20 05:23:08;;;;;;;0.80;0.80;;;;;;;3.77;100.00;101685.50;4994920;28;20050;-56
2022/01/20 05:26:13;;;;;;;4.05;3.13;;;;;;;3.73;100.00;101679.97;4998368;28;20490;-56
2022/01/20 05:29:18;;;;;;;2.00;1.42;;;;;;;3.71;100.00;101676.81;5014184;28;20498;-57
2022/01/20 05:32:22;;;;;;;3.72;1.23;;;;;;;3.66;100.00;101671.66;5013861;28;20056;-56
2022/01/20 05:35:27;;;;;;;5.47;2.08;;;;;;;3.66;100.00;101684.66;5014148;28;20482;-56
2022/01/20 05:38:30;;;;;;;2.30;1.50;;;;;;;3.68;100.00;101685.84;5013600;28;20048;-56
2022/01/20 05:41:33;;;;;;;4.78;1.60;;;;;;;3.71;100.00;101698.06;5014027;28;20099;-56
2022/01/20 05:44:37;;;;;;;17.70;1.88;;;;;;;3.70;100.00;101696.50;5012952;28;20493;-56
2022/01/20 05:47:46;;;;;;;2.25;0.85;;;;;;;3.63;100.00;101707.47;5013636;28;20458;-56
2022/01/20 05:50:49;;;;;;;3.50;1.33;;;;;;;3.74;100.00;101702.81;5013752;28;20057;-55
2022/01/20 05:53:53;;;;;;;7.18;3.85;;;;;;;3.75;100.00;101701.63;5013176;28;20049;-55
2022/01/20 05:56:56;;;;;;;2.00;1.02;;;;;;;3.72;100.00;101707.94;5012901;28;20052;-55
2022/01/20 06:00:01;;;;;;;3.50;1.15;;;;;;;3.68;100.00;101699.63;5014018;28;20057;-56
2022/01/20 06:06:27;;;;;;;2.38;1.77;;;;;;;3.62;100.00;101716.88;5013614;28;20048;-56
2022/01/20 06:09:30;;;;;;;1.55;1.45;;;;;;;3.55;100.00;101716.88;5013301;28;20056;-56
2022/01/20 06:12:33;;;;;;;5.25;1.80;;;;;;;3.49;100.00;101732.94;5013470;28;20068;-57
2022/01/20 06:15:37;;;;;;;5.78;1.52;;;;;;;3.56;100.00;101743.22;5020294;28;20481;-56
2022/01/20 06:18:41;;;;;;;5.03;2.53;;;;;;;3.52;100.00;101736.91;5033027;28;20052;-55
2022/01/20 06:21:45;;;;;;;5.07;1.55;;;;;;;3.57;100.00;101737.31;5033066;28;20052;-56
2022/01/20 06:24:48;;;;;;;2.22;1.02;;;;;;;3.55;100.00;101736.16;5032870;28;20060;-56
2022/01/20 06:27:52;;;;;;;1.17;0.50;;;;;;;3.54;100.00;101737.31;5015171;28;20494;-55
2022/01/20 06:30:55;;;;;;;2.85;1.08;;;;;;;3.52;100.00;101742.41;5012897;28;20446;-56
2022/01/20 06:33:58;;;;;;;0.25;0.25;;;;;;;3.44;100.00;101743.53;5013012;28;20121;-55
2022/01/20 06:37:02;;;;;;;5.85;0.52;;;;;;;3.41;100.00;101760.81;5012955;28;20057;-55
2022/01/20 06:40:07;;;;;;;0.45;0.30;;;;;;;3.34;100.00;101757.97;5012234;28;20049;-55
2022/01/20 06:43:11;;;;;;;20.35;6.05;;;;;;;3.26;100.00;101759.09;5013070;28;20061;-55
2022/01/20 06:46:14;;;;;;;5.05;1.75;;;;;;;3.21;100.00;101762.19;5012737;28;20200;-56
2022/01/20 06:49:18;;;;;;;6.47;3.42;;;;;;;3.13;100.00;101766.03;5012499;28;20061;-55
2022/01/20 06:52:22;;;;;;;8.50;3.40;;;;;;;3.12;100.00;101761.72;5013269;28;20058;-55
2022/01/20 06:55:25;;;;;;;1.85;1.25;;;;;;;3.05;100.00;101771.47;5017633;28;20049;-55
2022/01/20 06:58:29;;;;;;;3.88;1.40;;;;;;;3.00;100.00;101777.34;5032884;28;20045;-55
2022/01/20 07:01:32;;;;;;;3.13;2.10;;;;;;;3.05;100.00;101781.72;5032493;28;20057;-55
2022/01/20 07:04:37;;;;;;;1.85;1.05;;;;;;;3.00;100.00;101782.03;5032650;28;20052;-55
2022/01/20 07:07:40;;;;;;;0.73;0.50;;;;;;;2.92;100.00;101783.13;4993247;28;20061;-55
2022/01/20 07:10:44;;;;;;;0.65;0.52;;;;;;;2.90;100.00;101785.47;4993009;28;20066;-56
2022/01/20 07:13:47;;;;;;;0.65;0.65;;;;;;;2.86;100.00;101788.16;4992987;28;20407;-57
2022/01/20 07:16:51;;;;;;;1.55;1.30;;;;;;;2.89;100.00;101790.19;4993184;28;20045;-55
2022/01/20 07:19:54;;;;;;;0.95;0.68;;;;;;;2.86;100.00;101796.41;4993373;28;20042;-57
2022/01/20 07:22:58;;;;;;;0.68;0.68;;;;;;;2.86;100.00;101796.41;4993097;28;20053;-56
2022/01/20 07:26:01;;;;;;;1.00;0.90;;;;;;;2.84;100.00;101797.97;5006390;28;20048;-56
2022/01/20 07:29:05;;;;;;;1.95;1.55;;;;;;;2.80;100.00;101797.94;5035974;28;20052;-55
2022/01/20 07:32:09;;;;;;;2.15;1.40;;;;;;;2.81;100.00;101804.22;5036134;28;20048;-55
2022/01/20 07:35:12;;;;;;;0.90;0.63;;;;;;;2.79;100.00;101807.38;5028751;28;20383;-55
2022/01/20 07:38:15;;;;;;;1.02;0.75;;;;;;;2.77;100.00;101809.69;4996410;28;20049;-55
2022/01/20 07:41:19;;;;;;;2.05;1.58;;;;;;;2.75;100.00;101812.00;4996754;28;20057;-55
2022/01/20 07:44:23;;;;;;;1.45;1.35;;;;;;;2.74;100.00;101815.94;4996619;28;20054;-55
2022/01/20 07:47:26;;;;;;;3.70;1.95;;;;;;;2.69;100.00;101830.00;4996432;28;20062;-55
2022/01/20 07:50:30;;;;;;;3.22;1.67;;;;;;;2.60;100.00;101832.25;4996221;28;20057;-55
2022/01/20 07:53:35;;;;;;;3.50;1.70;;;;;;;2.52;100.00;101825.09;4996659;28;20053;-55
2022/01/20 07:56:38;;;;;;;0.63;0.63;;;;;;;2.46;100.00;101840.31;5011487;28;20048;-55
2022/01/20 07:59:41;;;;;;;3.40;2.83;;;;;;;2.40;100.00;101838.28;5015779;28;20486;-55
2022/01/20 08:02:45;;;;;;;2.13;1.30;;;;;;;2.33;100.00;101852.72;5015737;28;20873;-56
2022/01/20 08:05:49;;;;;;;0.90;0.60;;;;;;;2.23;100.00;101856.09;5015927;28;20533;-55
2022/01/20 08:08:53;;;;;;;0.77;0.77;;;;;;;2.17;100.00;101865.81;5015760;28;20061;-57
2022/01/20 08:11:56;;;;;;;0.65;0.65;;;;;;;2.09;100.00;101866.88;5015956;28;20053;-55
2022/01/20 08:15:00;;;;;;;1.63;1.27;;;;;;;2.09;100.00;101872.38;5015178;28;20135;-55
2022/01/20 08:18:04;;;;;;;0.88;0.80;;;;;;;2.09;100.00;101883.34;5015160;28;20056;-55
2022/01/20 08:21:08;;;;;;;0.47;0.47;;;;;;;2.08;100.00;101887.28;5015761;28;20041;-55
2022/01/20 08:24:11;;;;;;;0.35;0.35;;;;;;;2.08;100.00;101884.53;5015553;28;20056;-55
2022/01/20 08:27:16;;;;;;;0.30;0.20;;;;;;;2.12;100.00;101899.88;5028124;28;20052;-55
2022/01/20 08:30:21;;;;;;;2.25;1.00;;;;;;;2.15;100.00;101898.38;5035292;28;20048;-55
2022/01/20 08:33:25;;;;;;;2.28;1.33;;;;;;;2.14;100.00;101913.28;5034569;28;20056;-55
2022/01/20 08:36:28;;;;;;;3.38;2.35;;;;;;;2.11;100.00;101914.00;5006719;28;20049;-55
2022/01/20 08:42:35;;;;;;;2.03;0.85;;;;;;;2.11;100.00;101936.00;4995807;28;20073;-55
2022/01/20 08:45:40;;;;;;;1.35;0.70;;;;;;;2.09;100.00;101944.59;4995610;28;20061;-55
2022/01/20 08:48:43;;;;;;;2.35;2.03;;;;;;;2.12;100.00;101954.06;4995248;28;20400;-56
2022/01/20 08:51:47;;;;;;;1.33;0.55;;;;;;;2.22;100.00;101958.94;4995473;28;20053;-55
2022/01/20 08:54:50;;;;;;;7.18;1.02;;;;;;;2.26;100.00;101952.34;4996098;28;20053;-56
2022/01/20 08:57:55;;;;;;;0.82;0.82;;;;;;;2.28;100.00;101954.72;5014867;28;20411;-55
2022/01/20 09:01:00;;;;;;;0.38;0.38;;;;;;;2.26;100.00;101959.78;5014577;28;20045;-55
2022/01/20 09:04:04;;;;;;;19.63;1.85;;;;;;;2.24;100.00;101973.13;5013634;28;20065;-56
2022/01/20 09:07:07;;;;;;;6.63;2.70;;;;;;;2.27;100.00;101967.66;5013198;28;20061;-56
2022/01/20 09:10:18;;;;;;;1.17;0.55;;;;;;;2.33;100.00;101981.91;5013818;28;20057;-56
2022/01/20 09:16:44;;;;;;;0.85;0.77;;;;;;;2.35;100.00;101990.59;5014408;28;20092;-55
2022/01/20 09:19:47;;;;;;;1.02;0.77;;;;;;;2.32;100.00;101999.56;5014392;28;20125;-55
2022/01/20 09:22:52;;;;;;;8.27;1.45;;;;;;;2.28;100.00;102007.75;5014814;28;20049;-55
2022/01/20 09:25:55;;;;;;;7.40;2.70;;;;;;;2.22;100.00;102013.91;5016175;28;20399;-56
2022/01/20 09:28:59;;;;;;;1.33;0.98;;;;;;;2.25;100.00;102024.19;5034427;28;20053;-56
2022/01/20 09:32:05;;;;;;;3.10;1.17;;;;;;;2.27;100.00;102019.13;5033981;28;20048;-56
2022/01/20 09:35:09;;;;;;;4.18;1.15;;;;;;;2.31;100.00;102030.97;5027671;28;20057;-56
2022/01/20 09:38:12;;;;;;;0.63;0.55;;;;;;;2.35;100.00;102034.56;4993242;28;20053;-56
2022/01/20 09:41:16;;;;;;;5.82;1.35;;;;;;;2.39;100.00;102038.19;4993947;28;20041;-55
2022/01/20 09:44:19;;;;;;;10.32;1.30;;;;;;;2.39;100.00;102040.94;4994423;28;20049;-55
2022/01/20 09:47:24;;;;;;;4.82;1.45;;;;;;;2.45;100.00;102038.69;4994728;28;20053;-55
2022/01/20 09:50:28;;;;;;;6.30;1.30;;;;;;;2.47;100.00;102037.13;4993861;28;20053;-55
2022/01/20 09:53:32;;;;;;;4.55;0.98;;;;;;;2.54;100.00;102033.69;4994192;28;20176;-55
2022/01/20 09:56:37;;;;;;;4.38;1.52;;;;;;;2.64;100.00;102053.13;5008947;28;20048;-55
2022/01/20 09:59:40;;;;;;;5.28;1.00;;;;;;;2.68;100.00;102048.50;5013734;28;20387;-55
2022/01/20 10:03:06;;;;;;;3.40;1.90;;;;;;;2.75;100.00;102042.31;5013409;28;20069;-55
2022/01/20 10:06:09;;;;;;;7.03;1.95;;;;;;;2.76;100.00;102041.94;5025287;28;20049;-55
2022/01/20 10:09:12;;;;;;;12.60;1.90;;;;;;;2.84;100.00;102040.88;5032793;28;20521;-57
2022/01/20 10:12:18;;;;;;;2.20;1.05;;;;;;;2.88;100.00;102046.47;5033395;28;20048;-56
2022/01/20 10:15:24;;;;;;;2.78;2.10;;;;;;;2.90;100.00;102055.91;5022412;28;20506;-56
2022/01/20 10:18:29;;;;;;;5.40;1.30;;;;;;;2.89;100.00;102059.84;4993980;28;20053;-55
2022/01/20 10:21:36;;;;;;;1.48;0.82;;;;;;;2.87;100.00;102066.88;4993258;28;20061;-55
2022/01/20 10:24:39;;;;;;;1.13;1.08;;;;;;;2.84;100.00;102073.91;4994036;28;20053;-55
2022/01/20 10:27:51;;;;;;;0.85;0.82;;;;;;;2.86;100.00;102074.31;5026716;28;20406;-56
2022/01/20 10:30:56;;;;;;;4.85;2.90;;;;;;;2.83;100.00;102077.03;5033263;28;20064;-56
2022/01/20 10:34:02;;;;;;;2.08;1.40;;;;;;;2.86;100.00;102076.28;5033100;28;20394;-56
2022/01/20 10:37:13;;;;;;;7.13;1.88;;;;;;;2.90;100.00;102072.41;4993746;28;20065;-56
2022/01/20 10:40:17;;;;;;;;;;;;;;;2.91;100.00;102074.03;4994377;28;20045;-55
2022/01/20 10:43:26;;;;;;;2.72;1.50;;;;;;;2.93;100.00;102071.69;4993370;28;19913;-56
2022/01/20 10:46:40;;;;;;;0.60;0.60;;;;;;;2.89;100.00;102084.59;4993739;28;20069;-55
2022/01/20 10:49:45;;;;;;;5.38;1.63;;;;;;;2.86;100.00;102090.03;4993060;28;20526;-55
2022/01/20 10:52:49;;;;;;;7.85;1.42;;;;;;;2.87;100.00;102089.69;4993487;28;20061;-55
2022/01/20 10:56:04;;;;;;;3.75;1.92;;;;;;;2.87;100.00;102097.94;4993160;28;20049;-57
2022/01/20 10:59:09;;;;;;;23.33;3.10;;;;;;;2.91;100.00;102101.53;5009007;28;20049;-55
2022/01/20 11:02:12;;;;;;;3.50;1.73;;;;;;;2.91;100.00;102107.03;5012370;28;20053;-55
2022/01/20 11:05:16;;;;;;;3.38;1.80;;;;;;;2.97;100.00;102107.50;5013128;28;20048;-56
2022/01/20 11:08:21;;;;;;;2.28;1.25;;;;;;;3.03;100.00;102098.56;5012765;28;20045;-55
2022/01/20 11:11:25;;;;;;;3.53;1.50;;;;;;;3.05;100.00;102104.50;5012960;28;20061;-55
2022/01/20 11:14:30;;;;;;;4.88;2.60;;;;;;;3.05;100.00;102107.25;5012271;28;20065;-55
2022/01/20 11:17:34;;;;;;;8.38;1.50;;;;;;;3.06;100.00;102108.06;5012717;28;20057;-55
2022/01/20 11:20:46;;;;;;;3.25;2.15;;;;;;;3.11;100.00;102116.00;5012691;28;20533;-55
2022/01/20 11:23:49;;;;;;;14.88;5.05;;;;;;;3.12;100.00;102112.06;5013034;28;20049;-55
2022/01/20 11:26:59;;;;;;;2.95;1.35;;;;;;;3.12;100.00;102106.56;5020099;28;20053;-55
2022/01/20 11:30:26;;;;;;;2.22;1.27;;;;;;;3.15;100.00;102113.28;4993083;28;20053;-55
2022/01/20 11:33:38;;;;;;;5.05;1.20;;;;;;;3.24;100.00;102108.31;4993244;28;20050;-55
2022/01/20 11:36:42;;;;;;;7.70;2.25;;;;;;;3.33;100.00;102111.63;5008831;28;20057;-55
2022/01/20 11:39:45;;;;;;;2.65;1.92;;;;;;;3.39;100.00;102107.38;5013015;28;20049;-55
2022/01/20 11:43:15;;;;;;;1.90;0.43;;;;;;;3.47;100.00;102098.03;5012870;28;20053;-55
2022/01/20 11:46:25;;;;;;;0.40;0.40;;;;;;;3.52;100.00;102103.22;5025304;28;20052;-56
2022/01/20 11:49:35;;;;;;;0.90;0.57;;;;;;;3.57;100.00;102095.41;5031953;28;20045;-54
2022/01/20 11:52:38;;;;;;;21.08;1.85;;;;;;;3.62;100.00;102099.81;5032638;28;20056;-55
2022/01/20 11:55:45;;;;;;;1.17;1.00;;;;;;;3.68;100.00;102095.59;5016298;28;20046;-55
2022/01/20 11:58:51;;;;;;;4.03;1.02;;;;;;;3.75;100.00;102096.44;5005562;28;20072;-54
2022/01/20 12:01:55;;;;;;;19.60;2.45;;;;;;;3.86;100.00;102107.59;5012252;28;20053;-54
2022/01/20 12:05:00;;;;;;;1.35;0.52;;;;;;;3.91;100.00;102100.97;5012184;28;20064;-54
2022/01/20 12:08:12;;;;;;;5.30;2.00;;;;;;;3.93;100.00;102093.91;5012083;28;20045;-55
2022/01/20 12:11:16;;;;;;;3.85;0.95;;;;;;;3.98;100.00;102092.78;5012285;28;20048;-55
2022/01/20 12:14:35;;;;;;;3.08;1.13;;;;;;;4.03;100.00;102084.97;5015369;28;20415;-56
2022/01/20 12:17:41;;;;;;;0.20;0.20;;;;;;;4.07;100.00;102080.28;5015925;28;20116;-54
2022/01/20 12:20:45;;;;;;;21.55;1.48;;;;;;;4.13;100.00;102089.84;5015349;28;20048;-54
2022/01/20 12:23:52;;;;;;;0.75;0.75;;;;;;;4.16;100.00;102078.03;5004012;28;20062;-54
2022/01/20 12:26:56;;;;;;;3.25;0.82;;;;;;;4.20;100.00;102078.09;5020822;28;20056;-55
2022/01/20 12:30:00;;;;;;;1.65;1.33;;;;;;;4.21;100.00;102072.19;5015540;28;20048;-55
2022/01/20 12:33:12;;;;;;;1.95;0.85;;;;;;;4.22;100.00;102082.03;5015081;28;20061;-55
2022/01/20 12:36:16;;;;;;;;;;;;;;;4.30;100.00;102069.13;5015606;28;20057;-55
2022/01/20 12:39:30;;;;;;;0.10;0.10;;;;;;;4.38;100.00;102068.00;5015366;28;20283;-55
2022/01/20 12:42:36;;;;;;;0.38;0.38;;;;;;;4.40;100.00;102069.22;5015555;28;20068;-55
2022/01/20 12:45:55;;;;;;;2.53;0.63;;;;;;;4.43;100.00;102067.66;5014310;28;20053;-56
2022/01/20 12:49:11;;;;;;;0.77;0.63;;;;;;;4.46;100.00;102067.69;5014988;28;20418;-55
2022/01/20 12:52:14;;;;;;;0.30;0.30;;;;;;;4.50;100.00;102068.50;5014610;28;20049;-55
2022/01/20 12:55:19;;;;;;;0.65;0.65;;;;;;;4.53;100.00;102070.53;4999823;28;20045;-55
2022/01/20 12:58:23;;;;;;;0.40;0.40;;;;;;;4.53;100.00;102070.53;5014736;28;20045;-55
2022/01/20 13:01:41;;;;;;;0.50;0.17;;;;;;;4.57;100.00;102082.38;5014761;28;20061;-55
2022/01/20 13:04:44;;;;;;;2.03;0.95;;;;;;;4.65;100.00;102076.94;5014836;28;20053;-55
2022/01/20 13:07:51;;;;;;;0.38;0.38;;;;;;;4.63;100.00;102076.53;5014597;28;20410;-55
2022/01/20 13:11:15;;;;;;;3.53;0.43;;;;;;;4.65;100.00;102055.66;5014823;28;20108;-55
2022/01/20 13:14:22;;;;;;;0.15;0.10;;;;;;;4.69;100.00;102061.19;5014205;28;20125;-55
2022/01/20 13:17:30;;;;;;;0.20;0.10;;;;;;;4.73;100.00;102062.00;5014829;28;20045;-55
2022/01/20 13:20:40;;;;;;;0.10;0.10;;;;;;;4.89;100.00;102059.78;5014245;28;20049;-55
2022/01/20 13:23:56;;;;;;;1.42;0.95;;;;;;;4.95;100.00;102061.81;5013490;28;20065;-55
2022/01/20 13:27:00;;;;;;;8.48;0.75;;;;;;;4.95;100.00;102047.22;5025028;28;20056;-55
2022/01/20 13:30:05;;;;;;;0.73;0.65;;;;;;;5.02;100.00;102052.78;5034200;28;20053;-54
2022/01/20 13:33:27;;;;;;;0.98;0.15;;;;;;;5.04;100.00;102044.91;5033951;28;20057;-54
2022/01/20 13:36:51;;;;;;;0.35;0.35;;;;;;;5.10;100.00;102043.38;5005731;28;20057;-54
2022/01/20 13:39:56;;;;;;;0.90;0.35;;;;;;;5.05;100.00;102047.28;4994839;28;20403;-54
2022/01/20 13:46:20;;;;;;;0.88;0.88;;;;;;;5.20;100.00;102053.66;5006838;28;20061;-54
2022/01/20 13:49:25;;;;;;;0.65;0.10;;;;;;;5.23;100.00;102047.38;5013283;28;20056;-54
2022/01/20 13:52:38;;;;;;;1.85;0.88;;;;;;;5.15;100.00;102041.03;5013735;28;20395;-56
2022/01/20 13:55:45;;;;;;;5.60;0.30;;;;;;;5.03;100.00;102046.06;5013404;28;20048;-57
2022/01/20 13:59:04;;;;;;;3.03;0.40;;;;;;;4.94;100.00;102045.59;5013850;28;20050;-55
2022/01/20 14:02:09;;;;;;;1.38;0.30;;;;;;;4.89;100.00;102048.75;5012073;28;20041;-49
2022/01/20 14:05:12;;;;;;;0.30;0.28;;;;;;;4.99;100.00;102048.03;5013140;28;20044;-49
2022/01/20 14:08:18;;;;;;;1.00;0.22;;;;;;;4.98;100.00;102052.75;5013523;28;20096;-49
2022/01/20 14:11:22;;;;;;;0.10;0.10;;;;;;;5.01;100.00;102052.00;5012049;28;20171;-49
2022/01/20 14:14:25;;;;;;;0.73;0.60;;;;;;;5.03;100.00;102055.16;5012592;28;20048;-49
2022/01/20 14:17:34;;;;;;;0.30;0.30;;;;;;;5.07;100.00;102049.66;5013728;28;20057;-49
2022/01/20 14:20:38;;;;;;;1.48;0.95;;;;;;;5.12;100.00;102047.31;5012530;28;20049;-49
2022/01/20 14:23:41;;;;;;;0.73;0.40;;;;;;;5.15;100.00;102045.78;5013404;28;20056;-49
2022/01/20 14:26:45;;;;;;;0.75;0.50;;;;;;;5.07;100.00;102044.13;5022007;28;20410;-49
2022/01/20 14:29:49;;;;;;;0.30;0.20;;;;;;;4.99;100.00;102036.97;5032907;28;20528;-49
2022/01/20 14:32:53;;;;;;;0.55;0.40;;;;;;;4.87;100.00;102034.53;5032981;28;20068;-49
2022/01/20 14:35:56;;;;;;;0.77;0.38;;;;;;;4.82;100.00;102043.97;5012899;28;20403;-49
2022/01/20 14:38:59;;;;;;;0.63;0.63;;;;;;;4.86;100.00;102049.50;4993434;28;20065;-49
2022/01/20 14:42:05;;;;;;;0.55;0.50;;;;;;;4.83;100.00;102055.81;4992965;28;20050;-49
2022/01/20 14:45:11;;;;;;;2.63;0.98;;;;;;;4.79;100.00;102060.47;4993221;28;20049;-49
2022/01/20 14:48:17;;;;;;;0.20;0.20;;;;;;;4.90;100.00;102066.88;4993499;28;20053;-49
2022/01/20 14:51:25;;;;;;;0.57;0.30;;;;;;;5.10;100.00;102070.97;4993013;28;20506;-49
2022/01/20 14:54:29;;;;;;;0.43;0.20;;;;;;;5.12;100.00;102069.41;4982031;28;20053;-49
2022/01/20 14:57:33;;;;;;;0.40;0.32;;;;;;;5.12;100.00;102079.66;4992598;28;20053;-49
2022/01/20 15:00:37;;;;;;;0.10;0.10;;;;;;;5.02;100.00;102069.34;4992983;28;20057;-49
2022/01/20 15:03:41;;;;;;;2.92;1.17;;;;;;;4.98;100.00;102060.25;4993113;28;20053;-49
2022/01/20 15:06:44;;;;;;;1.73;0.70;;;;;;;5.04;100.00;102067.00;5008382;28;20060;-49
2022/01/20 15:09:47;;;;;;;4.95;0.75;;;;;;;4.99;100.00;102070.09;5000645;28;20053;-49
2022/01/20 15:12:59;;;;;;;0.40;0.38;;;;;;;4.86;100.00;102066.06;5013032;28;20406;-49
2022/01/20 15:16:04;;;;;;;0.10;0.00;;;;;;;4.71;100.00;102069.88;5012839;28;20533;-49
2022/01/20 15:19:09;;;;;;;0.77;0.30;;;;;;;4.60;100.00;102065.06;5012769;28;20060;-49
2022/01/20 15:22:13;;;;;;;0.10;0.10;;;;;;;4.52;100.00;102063.44;5012272;28;20056;-49
2022/01/20 15:25:17;;;;;;;1.38;1.05;;;;;;;4.41;100.00;102062.53;5016862;28;20486;-49
2022/01/20 15:28:20;;;;;;;0.20;0.20;;;;;;;4.32;100.00;102070.34;4993067;28;20411;-49
2022/01/20 15:31:36;;;;;;;0.10;0.10;;;;;;;4.24;100.00;102068.69;4992498;28;20053;-49
2022/01/20 15:34:39;;;;;;;0.30;0.30;;;;;;;4.24;100.00;102073.41;4992476;28;20049;-48
2022/01/20 15:37:43;;;;;;;0.30;0.30;;;;;;;4.20;100.00;102089.88;4994944;28;20045;-49
2022/01/20 15:40:47;;;;;;;0.20;0.20;;;;;;;4.19;100.00;102079.25;5012617;28;20510;-48